sensor_id;sensor_type;location;lat;lon;timestamp;P1;durP1;ratioP1;P2;durP2;ratioP2
13222;SDS011;6676;45.192;5.722;2023-02-18T02:42:15;14.03;;;6.55;;
13222;SDS011;6676;45.192;5.722;2023-02-18T02:45:10;10.53;;;6.95;;
13222;SDS011;6676;45.192;5.722;2023-02-18T02:48:05;8.43;;;6.03;;
13222;SDS011;6676;45.192;5.722;2023-02-18T02:51:01;10.15;;;6.47;;
13222;SDS011;6676;45.192;5.722;2023-02-18T02:53:57;8.70;;;5.80;;
13222;SDS011;6676;45.192;5.722;2023-02-18T02:57:36;7.95;;;5.85;;
13222;SDS011;6676;45.192;5.722;2023-02-18T03:00:25;10.28;;;6.17;;
13222;SDS011;6676;45.192;5.722;2023-02-18T03:03:26;8.38;;;5.90;;
13222;SDS011;6676;45.192;5.722;2023-02-18T03:06:26;10.38;;;6.62;;
13222;SDS011;6676;45.192;5.722;2023-02-18T03:09:31;12.50;;;6.22;;
13222;SDS011;6676;45.192;5.722;2023-02-18T03:12:26;10.30;;;6.05;;
13222;SDS011;6676;45.192;5.722;2023-02-18T03:15:21;9.43;;;6.67;;
13222;SDS011;6676;45.192;5.722;2023-02-18T03:18:17;9.08;;;6.60;;
13222;SDS011;6676;45.192;5.722;2023-02-18T03:21:10;9.70;;;6.00;;
13222;SDS011;6676;45.192;5.722;2023-02-18T03:24:06;8.98;;;6.58;;
13222;SDS011;6676;45.192;5.722;2023-02-18T03:27:02;9.00;;;6.05;;
13222;SDS011;6676;45.192;5.722;2023-02-18T03:29:56;10.13;;;6.22;;
13222;SDS011;6676;45.192;5.722;2023-02-18T03:32:52;8.90;;;6.15;;
13222;SDS011;6676;45.192;5.722;2023-02-18T03:35:47;9.63;;;6.75;;
13222;SDS011;6676;45.192;5.722;2023-02-18T03:38:43;11.45;;;7.22;;
13222;SDS011;6676;45.192;5.722;2023-02-18T03:41:36;10.53;;;6.08;;
13222;SDS011;6676;45.192;5.722;2023-02-18T03:44:29;8.85;;;6.20;;
13222;SDS011;6676;45.192;5.722;2023-02-18T03:47:20;9.88;;;6.03;;
13222;SDS011;6676;45.192;5.722;2023-02-18T03:50:13;10.65;;;6.40;;
13222;SDS011;6676;45.192;5.722;2023-02-18T03:53:05;8.83;;;6.40;;
13222;SDS011;6676;45.192;5.722;2023-02-18T03:55:57;8.35;;;6.35;;
13222;SDS011;6676;45.192;5.722;2023-02-18T03:58:48;9.10;;;6.17;;
13222;SDS011;6676;45.192;5.722;2023-02-18T04:01:40;9.33;;;6.15;;
13222;SDS011;6676;45.192;5.722;2023-02-18T04:04:32;9.05;;;6.35;;
13222;SDS011;6676;45.192;5.722;2023-02-18T04:07:24;8.80;;;6.10;;
13222;SDS011;6676;45.192;5.722;2023-02-18T04:10:16;9.00;;;6.17;;
13222;SDS011;6676;45.192;5.722;2023-02-18T04:13:08;10.85;;;7.10;;
13222;SDS011;6676;45.192;5.722;2023-02-18T04:16:00;11.10;;;7.28;;
13222;SDS011;6676;45.192;5.722;2023-02-18T04:18:54;9.00;;;6.65;;
13222;SDS011;6676;45.192;5.722;2023-02-18T04:21:46;11.00;;;6.92;;
13222;SDS011;6676;45.192;5.722;2023-02-18T04:24:37;10.00;;;7.30;;
13222;SDS011;6676;45.192;5.722;2023-02-18T04:27:29;9.03;;;6.90;;
13222;SDS011;6676;45.192;5.722;2023-02-18T04:30:21;8.88;;;6.60;;
13222;SDS011;6676;45.192;5.722;2023-02-18T04:33:15;8.93;;;6.80;;
13222;SDS011;6676;45.192;5.722;2023-02-18T04:36:07;13.08;;;8.10;;
13222;SDS011;6676;45.192;5.722;2023-02-18T04:38:59;11.38;;;7.80;;
13222;SDS011;6676;45.192;5.722;2023-02-18T04:41:50;9.83;;;7.30;;
13222;SDS011;6676;45.192;5.722;2023-02-18T04:44:42;12.85;;;7.70;;
13222;SDS011;6676;45.192;5.722;2023-02-18T04:47:35;11.75;;;7.30;;
13222;SDS011;6676;45.192;5.722;2023-02-18T04:53:40;13.03;;;7.95;;
13222;SDS011;6676;45.192;5.722;2023-02-18T04:56:35;10.82;;;7.30;;
13222;SDS011;6676;45.192;5.722;2023-02-18T04:59:30;9.75;;;7.20;;
13222;SDS011;6676;45.192;5.722;2023-02-18T05:02:26;11.45;;;6.92;;
13222;SDS011;6676;45.192;5.722;2023-02-18T05:05:22;11.18;;;6.92;;
13222;SDS011;6676;45.192;5.722;2023-02-18T05:08:18;8.50;;;6.90;;
13222;SDS011;6676;45.192;5.722;2023-02-18T05:11:19;9.45;;;6.53;;
13222;SDS011;6676;45.192;5.722;2023-02-18T05:14:14;9.28;;;6.92;;
13222;SDS011;6676;45.192;5.722;2023-02-18T05:17:09;8.50;;;6.37;;
13222;SDS011;6676;45.192;5.722;2023-02-18T05:20:09;8.43;;;6.75;;
13222;SDS011;6676;45.192;5.722;2023-02-18T05:23:06;10.35;;;7.22;;
13222;SDS011;6676;45.192;5.722;2023-02-18T05:26:02;9.00;;;6.55;;
13222;SDS011;6676;45.192;5.722;2023-02-18T05:29:07;10.82;;;6.97;;
13222;SDS011;6676;45.192;5.722;2023-02-18T05:32:01;9.88;;;6.20;;
13222;SDS011;6676;45.192;5.722;2023-02-18T05:34:56;10.00;;;6.53;;
13222;SDS011;6676;45.192;5.722;2023-02-18T05:37:51;9.30;;;6.28;;
13222;SDS011;6676;45.192;5.722;2023-02-18T05:40:48;9.63;;;6.72;;
13222;SDS011;6676;45.192;5.722;2023-02-18T05:43:41;11.33;;;7.12;;
13222;SDS011;6676;45.192;5.722;2023-02-18T05:46:58;10.00;;;6.72;;
13222;SDS011;6676;45.192;5.722;2023-02-18T05:49:59;12.45;;;7.08;;
13222;SDS011;6676;45.192;5.722;2023-02-18T05:52:52;11.68;;;7.70;;
13222;SDS011;6676;45.192;5.722;2023-02-18T05:55:47;12.43;;;7.47;;
13222;SDS011;6676;45.192;5.722;2023-02-18T05:58:42;11.48;;;8.13;;
13222;SDS011;6676;45.192;5.722;2023-02-18T06:01:37;10.65;;;7.42;;
13222;SDS011;6676;45.192;5.722;2023-02-18T06:04:31;12.78;;;7.92;;
13222;SDS011;6676;45.192;5.722;2023-02-18T06:07:25;11.68;;;8.00;;
13222;SDS011;6676;45.192;5.722;2023-02-18T06:10:27;12.53;;;7.97;;
13222;SDS011;6676;45.192;5.722;2023-02-18T06:13:25;12.68;;;8.53;;
13222;SDS011;6676;45.192;5.722;2023-02-18T06:16:18;14.60;;;8.28;;
13222;SDS011;6676;45.192;5.722;2023-02-18T06:19:14;14.87;;;8.23;;
13222;SDS011;6676;45.192;5.722;2023-02-18T06:22:23;11.22;;;8.00;;
13222;SDS011;6676;45.192;5.722;2023-02-18T06:25:17;12.18;;;7.87;;
13222;SDS011;6676;45.192;5.722;2023-02-18T06:28:16;9.35;;;6.97;;
13222;SDS011;6676;45.192;5.722;2023-02-18T06:31:10;12.37;;;8.20;;
13222;SDS011;6676;45.192;5.722;2023-02-18T06:34:09;11.90;;;8.13;;
13222;SDS011;6676;45.192;5.722;2023-02-18T06:37:14;10.75;;;7.15;;
13222;SDS011;6676;45.192;5.722;2023-02-18T06:40:20;11.15;;;8.48;;
13222;SDS011;6676;45.192;5.722;2023-02-18T06:43:17;10.28;;;7.75;;
13222;SDS011;6676;45.192;5.722;2023-02-18T06:46:14;11.18;;;7.72;;
13222;SDS011;6676;45.192;5.722;2023-02-18T06:49:08;10.78;;;7.45;;
13222;SDS011;6676;45.192;5.722;2023-02-18T06:52:01;13.55;;;7.75;;
13222;SDS011;6676;45.192;5.722;2023-02-18T06:54:53;11.12;;;8.15;;
13222;SDS011;6676;45.192;5.722;2023-02-18T06:57:47;11.12;;;8.08;;
13222;SDS011;6676;45.192;5.722;2023-02-18T07:00:42;12.00;;;8.20;;
13222;SDS011;6676;45.192;5.722;2023-02-18T07:03:35;12.55;;;7.90;;
13222;SDS011;6676;45.192;5.722;2023-02-18T07:06:27;15.63;;;8.08;;
13222;SDS011;6676;45.192;5.722;2023-02-18T07:09:24;11.40;;;7.40;;
13222;SDS011;6676;45.192;5.722;2023-02-18T07:12:19;11.12;;;8.03;;
13222;SDS011;6676;45.192;5.722;2023-02-18T07:15:11;11.18;;;7.30;;
13222;SDS011;6676;45.192;5.722;2023-02-18T07:18:04;13.50;;;8.05;;
13222;SDS011;6676;45.192;5.722;2023-02-18T07:20:59;11.22;;;7.80;;
13222;SDS011;6676;45.192;5.722;2023-02-18T07:23:53;11.90;;;7.65;;
13222;SDS011;6676;45.192;5.722;2023-02-18T07:26:50;11.20;;;7.67;;
13222;SDS011;6676;45.192;5.722;2023-02-18T07:29:44;10.40;;;7.58;;
13222;SDS011;6676;45.192;5.722;2023-02-18T07:32:39;10.45;;;7.22;;
13222;SDS011;6676;45.192;5.722;2023-02-18T07:35:32;9.55;;;7.12;;
13222;SDS011;6676;45.192;5.722;2023-02-18T07:38:25;9.70;;;7.40;;
13222;SDS011;6676;45.192;5.722;2023-02-18T07:41:21;10.93;;;7.00;;
13222;SDS011;6676;45.192;5.722;2023-02-18T07:44:15;13.35;;;7.45;;
13222;SDS011;6676;45.192;5.722;2023-02-18T07:47:09;12.82;;;7.35;;
13222;SDS011;6676;45.192;5.722;2023-02-18T07:50:13;13.75;;;8.25;;
13222;SDS011;6676;45.192;5.722;2023-02-18T07:53:05;14.53;;;8.67;;
13222;SDS011;6676;45.192;5.722;2023-02-18T07:56:15;11.93;;;7.37;;
13222;SDS011;6676;45.192;5.722;2023-02-18T07:59:09;11.25;;;7.47;;
13222;SDS011;6676;45.192;5.722;2023-02-18T08:02:02;10.03;;;7.50;;
13222;SDS011;6676;45.192;5.722;2023-02-18T08:04:57;12.13;;;7.17;;
13222;SDS011;6676;45.192;5.722;2023-02-18T08:07:50;10.75;;;7.45;;
13222;SDS011;6676;45.192;5.722;2023-02-18T08:10:43;11.60;;;8.18;;
13222;SDS011;6676;45.192;5.722;2023-02-18T08:13:35;12.30;;;8.43;;
13222;SDS011;6676;45.192;5.722;2023-02-18T08:16:29;12.93;;;7.37;;
13222;SDS011;6676;45.192;5.722;2023-02-18T08:19:24;10.43;;;7.22;;
13222;SDS011;6676;45.192;5.722;2023-02-18T08:22:17;9.93;;;7.03;;
13222;SDS011;6676;45.192;5.722;2023-02-18T08:25:14;10.20;;;7.10;;
13222;SDS011;6676;45.192;5.722;2023-02-18T08:28:14;9.70;;;7.15;;
13222;SDS011;6676;45.192;5.722;2023-02-18T08:31:15;10.78;;;7.22;;
13222;SDS011;6676;45.192;5.722;2023-02-18T08:34:12;10.45;;;7.10;;
13222;SDS011;6676;45.192;5.722;2023-02-18T08:37:06;11.63;;;6.87;;
13222;SDS011;6676;45.192;5.722;2023-02-18T08:40:01;12.23;;;6.83;;
13222;SDS011;6676;45.192;5.722;2023-02-18T08:42:58;9.38;;;6.30;;
13222;SDS011;6676;45.192;5.722;2023-02-18T08:45:51;9.70;;;6.22;;
13222;SDS011;6676;45.192;5.722;2023-02-18T08:48:48;8.23;;;6.50;;
13222;SDS011;6676;45.192;5.722;2023-02-18T08:51:46;9.05;;;6.00;;
13222;SDS011;6676;45.192;5.722;2023-02-18T08:54:40;9.08;;;6.08;;
13222;SDS011;6676;45.192;5.722;2023-02-18T08:57:36;9.08;;;5.92;;
13222;SDS011;6676;45.192;5.722;2023-02-18T09:03:10;12.03;;;6.17;;
13222;SDS011;6676;45.192;5.722;2023-02-18T09:06:03;8.83;;;5.58;;
13222;SDS011;6676;45.192;5.722;2023-02-18T09:08:55;10.23;;;5.53;;
13222;SDS011;6676;45.192;5.722;2023-02-18T09:11:46;7.85;;;4.90;;
13222;SDS011;6676;45.192;5.722;2023-02-18T09:14:40;8.43;;;5.15;;
13222;SDS011;6676;45.192;5.722;2023-02-18T09:17:32;9.15;;;5.20;;
13222;SDS011;6676;45.192;5.722;2023-02-18T09:23:02;7.75;;;5.03;;
13222;SDS011;6676;45.192;5.722;2023-02-18T09:25:57;8.53;;;4.65;;
13222;SDS011;6676;45.192;5.722;2023-02-18T09:28:36;7.22;;;5.00;;
13222;SDS011;6676;45.192;5.722;2023-02-18T09:31:28;7.55;;;4.75;;
13222;SDS011;6676;45.192;5.722;2023-02-18T09:34:21;7.87;;;4.92;;
13222;SDS011;6676;45.192;5.722;2023-02-18T09:37:12;9.33;;;5.40;;
13222;SDS011;6676;45.192;5.722;2023-02-18T09:40:04;9.10;;;5.20;;
13222;SDS011;6676;45.192;5.722;2023-02-18T09:43:00;8.75;;;5.35;;
13222;SDS011;6676;45.192;5.722;2023-02-18T09:45:51;8.80;;;5.00;;
13222;SDS011;6676;45.192;5.722;2023-02-18T09:48:46;7.90;;;4.90;;
13222;SDS011;6676;45.192;5.722;2023-02-18T09:51:40;11.48;;;6.15;;
13222;SDS011;6676;45.192;5.722;2023-02-18T09:54:31;8.38;;;5.37;;
13222;SDS011;6676;45.192;5.722;2023-02-18T09:57:24;12.20;;;5.72;;
13222;SDS011;6676;45.192;5.722;2023-02-18T10:00:19;8.83;;;5.25;;
13222;SDS011;6676;45.192;5.722;2023-02-18T10:03:14;9.20;;;5.03;;
13222;SDS011;6676;45.192;5.722;2023-02-18T10:06:09;8.25;;;4.90;;
13222;SDS011;6676;45.192;5.722;2023-02-18T10:09:01;8.53;;;4.75;;
13222;SDS011;6676;45.192;5.722;2023-02-18T10:11:56;7.92;;;4.90;;
13222;SDS011;6676;45.192;5.722;2023-02-18T10:14:50;7.25;;;4.50;;
13222;SDS011;6676;45.192;5.722;2023-02-18T10:17:31;12.65;;;5.03;;
13222;SDS011;6676;45.192;5.722;2023-02-18T10:23:04;8.90;;;5.28;;
13222;SDS011;6676;45.192;5.722;2023-02-18T10:25:55;7.45;;;4.37;;
13222;SDS011;6676;45.192;5.722;2023-02-18T10:28:48;7.58;;;4.65;;
13222;SDS011;6676;45.192;5.722;2023-02-18T10:31:39;8.23;;;5.33;;
13222;SDS011;6676;45.192;5.722;2023-02-18T10:34:39;10.48;;;5.72;;
13222;SDS011;6676;45.192;5.722;2023-02-18T10:37:40;8.35;;;5.90;;
13222;SDS011;6676;45.192;5.722;2023-02-18T10:40:45;6.75;;;5.42;;
13222;SDS011;6676;45.192;5.722;2023-02-18T10:43:40;7.67;;;5.53;;
13222;SDS011;6676;45.192;5.722;2023-02-18T10:46:35;7.25;;;5.53;;
13222;SDS011;6676;45.192;5.722;2023-02-18T10:49:33;11.68;;;5.50;;
13222;SDS011;6676;45.192;5.722;2023-02-18T10:52:40;6.47;;;5.00;;
13222;SDS011;6676;45.192;5.722;2023-02-18T10:55:34;9.00;;;5.22;;
13222;SDS011;6676;45.192;5.722;2023-02-18T10:58:29;7.35;;;5.12;;
13222;SDS011;6676;45.192;5.722;2023-02-18T11:01:22;7.30;;;5.42;;
13222;SDS011;6676;45.192;5.722;2023-02-18T11:04:15;8.23;;;5.30;;
13222;SDS011;6676;45.192;5.722;2023-02-18T11:07:11;7.55;;;5.37;;
13222;SDS011;6676;45.192;5.722;2023-02-18T11:10:08;10.75;;;6.67;;
13222;SDS011;6676;45.192;5.722;2023-02-18T11:15:53;7.78;;;5.45;;
13222;SDS011;6676;45.192;5.722;2023-02-18T11:18:52;7.10;;;4.75;;
13222;SDS011;6676;45.192;5.722;2023-02-18T11:21:43;7.62;;;5.28;;
13222;SDS011;6676;45.192;5.722;2023-02-18T11:24:37;8.35;;;5.45;;
13222;SDS011;6676;45.192;5.722;2023-02-18T11:27:31;8.33;;;5.22;;
13222;SDS011;6676;45.192;5.722;2023-02-18T11:30:26;7.67;;;5.15;;
13222;SDS011;6676;45.192;5.722;2023-02-18T11:33:25;8.75;;;6.20;;
13222;SDS011;6676;45.192;5.722;2023-02-18T11:36:21;9.45;;;5.50;;
13222;SDS011;6676;45.192;5.722;2023-02-18T11:41:56;8.15;;;5.72;;
13222;SDS011;6676;45.192;5.722;2023-02-18T11:44:50;7.58;;;5.50;;
13222;SDS011;6676;45.192;5.722;2023-02-18T11:47:44;8.40;;;5.10;;
13222;SDS011;6676;45.192;5.722;2023-02-18T11:50:28;7.97;;;5.53;;
13222;SDS011;6676;45.192;5.722;2023-02-18T11:53:28;7.40;;;5.10;;
13222;SDS011;6676;45.192;5.722;2023-02-18T11:56:21;8.05;;;5.67;;
13222;SDS011;6676;45.192;5.722;2023-02-18T11:59:12;8.45;;;5.80;;
13222;SDS011;6676;45.192;5.722;2023-02-18T12:04:44;8.68;;;5.42;;
13222;SDS011;6676;45.192;5.722;2023-02-18T12:07:40;6.58;;;5.33;;
13222;SDS011;6676;45.192;5.722;2023-02-18T12:10:23;7.70;;;5.80;;
13222;SDS011;6676;45.192;5.722;2023-02-18T12:13:21;7.37;;;5.47;;
13222;SDS011;6676;45.192;5.722;2023-02-18T12:16:16;7.10;;;4.90;;
13222;SDS011;6676;45.192;5.722;2023-02-18T12:19:15;6.08;;;4.42;;
13222;SDS011;6676;45.192;5.722;2023-02-18T12:24:56;3.50;;;2.35;;
13222;SDS011;6676;45.192;5.722;2023-02-18T12:30:39;5.83;;;3.20;;
13222;SDS011;6676;45.192;5.722;2023-02-18T12:33:44;4.30;;;2.00;;
13222;SDS011;6676;45.192;5.722;2023-02-18T12:36:44;2.72;;;2.10;;
13222;SDS011;6676;45.192;5.722;2023-02-18T12:42:37;4.20;;;2.52;;
13222;SDS011;6676;45.192;5.722;2023-02-18T12:45:37;2.12;;;1.50;;
13222;SDS011;6676;45.192;5.722;2023-02-18T12:48:44;3.02;;;1.85;;
13222;SDS011;6676;45.192;5.722;2023-02-18T12:51:43;4.78;;;3.75;;
13222;SDS011;6676;45.192;5.722;2023-02-18T12:54:42;5.60;;;3.15;;
13222;SDS011;6676;45.192;5.722;2023-02-18T12:57:42;4.65;;;3.27;;
13222;SDS011;6676;45.192;5.722;2023-02-18T13:14:15;5.28;;;1.57;;
13222;SDS011;6676;45.192;5.722;2023-02-18T13:19:54;2.95;;;1.80;;
13222;SDS011;6676;45.192;5.722;2023-02-18T13:22:47;1.77;;;1.42;;
13222;SDS011;6676;45.192;5.722;2023-02-18T13:39:02;3.30;;;1.70;;
13222;SDS011;6676;45.192;5.722;2023-02-18T13:48:09;2.17;;;1.55;;
13222;SDS011;6676;45.192;5.722;2023-02-18T13:51:00;3.42;;;1.50;;
13222;SDS011;6676;45.192;5.722;2023-02-18T13:53:53;2.40;;;1.50;;
13222;SDS011;6676;45.192;5.722;2023-02-18T13:56:50;1.35;;;1.10;;
13222;SDS011;6676;45.192;5.722;2023-02-18T13:59:44;2.05;;;1.52;;
13222;SDS011;6676;45.192;5.722;2023-02-18T14:02:34;4.58;;;1.30;;
13222;SDS011;6676;45.192;5.722;2023-02-18T14:05:36;2.70;;;1.27;;
13222;SDS011;6676;45.192;5.722;2023-02-18T14:08:30;2.62;;;1.35;;
13222;SDS011;6676;45.192;5.722;2023-02-18T14:11:23;1.57;;;1.20;;
13222;SDS011;6676;45.192;5.722;2023-02-18T14:14:40;2.22;;;1.17;;
13222;SDS011;6676;45.192;5.722;2023-02-18T14:20:28;2.42;;;1.50;;
13222;SDS011;6676;45.192;5.722;2023-02-18T14:23:55;2.35;;;1.00;;
13222;SDS011;6676;45.192;5.722;2023-02-18T14:26:49;2.02;;;1.10;;
13222;SDS011;6676;45.192;5.722;2023-02-18T14:29:40;3.60;;;1.10;;
13222;SDS011;6676;45.192;5.722;2023-02-18T14:32:34;2.02;;;1.30;;
13222;SDS011;6676;45.192;5.722;2023-02-18T14:35:29;2.33;;;1.15;;
13222;SDS011;6676;45.192;5.722;2023-02-18T14:41:09;1.60;;;1.05;;
13222;SDS011;6676;45.192;5.722;2023-02-18T14:44:18;1.65;;;0.95;;
13222;SDS011;6676;45.192;5.722;2023-02-18T14:47:13;2.35;;;1.47;;
13222;SDS011;6676;45.192;5.722;2023-02-18T14:50:00;1.77;;;1.37;;
13222;SDS011;6676;45.192;5.722;2023-02-18T14:55:33;2.22;;;1.22;;
13222;SDS011;6676;45.192;5.722;2023-02-18T14:58:28;1.17;;;0.90;;
13222;SDS011;6676;45.192;5.722;2023-02-18T15:01:22;1.92;;;0.95;;
13222;SDS011;6676;45.192;5.722;2023-02-18T15:04:16;1.05;;;0.93;;
13222;SDS011;6676;45.192;5.722;2023-02-18T15:06:59;2.87;;;0.90;;
13222;SDS011;6676;45.192;5.722;2023-02-18T15:09:52;1.55;;;1.10;;
13222;SDS011;6676;45.192;5.722;2023-02-18T15:12:44;2.35;;;0.90;;
13222;SDS011;6676;45.192;5.722;2023-02-18T15:15:36;1.30;;;1.10;;
13222;SDS011;6676;45.192;5.722;2023-02-18T15:18:29;1.72;;;1.15;;
13222;SDS011;6676;45.192;5.722;2023-02-18T15:21:15;1.72;;;1.07;;
13222;SDS011;6676;45.192;5.722;2023-02-18T15:24:08;3.45;;;1.00;;
13222;SDS011;6676;45.192;5.722;2023-02-18T15:27:13;1.15;;;1.05;;
13222;SDS011;6676;45.192;5.722;2023-02-18T15:29:49;1.80;;;1.35;;
13222;SDS011;6676;45.192;5.722;2023-02-18T15:32:45;2.62;;;1.25;;
13222;SDS011;6676;45.192;5.722;2023-02-18T15:35:40;1.42;;;1.10;;
13222;SDS011;6676;45.192;5.722;2023-02-18T15:38:31;1.72;;;1.22;;
13222;SDS011;6676;45.192;5.722;2023-02-18T15:41:24;1.70;;;1.20;;
13222;SDS011;6676;45.192;5.722;2023-02-18T15:44:17;1.70;;;1.40;;
13222;SDS011;6676;45.192;5.722;2023-02-18T15:46:59;3.05;;;1.35;;
13222;SDS011;6676;45.192;5.722;2023-02-18T15:49:52;1.30;;;1.10;;
13222;SDS011;6676;45.192;5.722;2023-02-18T15:55:30;1.35;;;1.00;;
13222;SDS011;6676;45.192;5.722;2023-02-18T15:58:25;2.70;;;1.30;;
13222;SDS011;6676;45.192;5.722;2023-02-18T16:01:25;3.30;;;1.52;;
13222;SDS011;6676;45.192;5.722;2023-02-18T16:04:18;3.05;;;1.30;;
13222;SDS011;6676;45.192;5.722;2023-02-18T16:07:18;2.42;;;1.02;;
13222;SDS011;6676;45.192;5.722;2023-02-18T16:10:17;7.20;;;1.67;;
13222;SDS011;6676;45.192;5.722;2023-02-18T16:12:56;1.98;;;1.00;;
13222;SDS011;6676;45.192;5.722;2023-02-18T16:15:49;1.65;;;1.10;;
13222;SDS011;6676;45.192;5.722;2023-02-18T16:21:25;2.12;;;1.27;;
13222;SDS011;6676;45.192;5.722;2023-02-18T16:24:22;1.60;;;1.05;;
13222;SDS011;6676;45.192;5.722;2023-02-18T16:29:55;3.25;;;1.17;;
13222;SDS011;6676;45.192;5.722;2023-02-18T16:32:49;1.52;;;1.20;;
13222;SDS011;6676;45.192;5.722;2023-02-18T16:35:42;2.55;;;1.00;;
13222;SDS011;6676;45.192;5.722;2023-02-18T16:38:23;1.77;;;1.10;;
13222;SDS011;6676;45.192;5.722;2023-02-18T16:41:15;2.33;;;1.00;;
13222;SDS011;6676;45.192;5.722;2023-02-18T16:44:09;2.00;;;1.05;;
13222;SDS011;6676;45.192;5.722;2023-02-18T16:46:50;1.27;;;0.90;;
13222;SDS011;6676;45.192;5.722;2023-02-18T16:52:20;1.42;;;0.90;;
13222;SDS011;6676;45.192;5.722;2023-02-18T16:55:15;2.15;;;1.27;;
13222;SDS011;6676;45.192;5.722;2023-02-18T16:58:08;1.32;;;0.90;;
13222;SDS011;6676;45.192;5.722;2023-02-18T17:00:49;2.83;;;0.93;;
13222;SDS011;6676;45.192;5.722;2023-02-18T17:06:25;1.35;;;0.80;;
13222;SDS011;6676;45.192;5.722;2023-02-18T17:09:17;0.93;;;0.65;;
13222;SDS011;6676;45.192;5.722;2023-02-18T17:12:09;1.27;;;0.90;;
13222;SDS011;6676;45.192;5.722;2023-02-18T17:14:50;0.90;;;0.68;;
13222;SDS011;6676;45.192;5.722;2023-02-18T17:17:42;1.37;;;0.70;;
13222;SDS011;6676;45.192;5.722;2023-02-18T17:20:21;1.00;;;0.70;;
13222;SDS011;6676;45.192;5.722;2023-02-18T17:25:58;0.70;;;0.60;;
13222;SDS011;6676;45.192;5.722;2023-02-18T17:28:51;1.67;;;0.82;;
13222;SDS011;6676;45.192;5.722;2023-02-18T17:31:43;0.88;;;0.70;;
13222;SDS011;6676;45.192;5.722;2023-02-18T17:34:36;1.75;;;0.60;;
13222;SDS011;6676;45.192;5.722;2023-02-18T17:40:11;1.67;;;1.12;;
13222;SDS011;6676;45.192;5.722;2023-02-18T17:45:44;1.35;;;1.02;;
13222;SDS011;6676;45.192;5.722;2023-02-18T17:48:38;1.40;;;0.90;;
13222;SDS011;6676;45.192;5.722;2023-02-18T17:51:29;2.37;;;1.02;;
13222;SDS011;6676;45.192;5.722;2023-02-18T17:54:22;3.37;;;1.27;;
13222;SDS011;6676;45.192;5.722;2023-02-18T17:57:03;1.20;;;0.90;;
13222;SDS011;6676;45.192;5.722;2023-02-18T17:59:54;2.25;;;1.10;;
13222;SDS011;6676;45.192;5.722;2023-02-18T18:05:26;1.82;;;1.00;;
13222;SDS011;6676;45.192;5.722;2023-02-18T18:08:19;2.58;;;1.17;;
13222;SDS011;6676;45.192;5.722;2023-02-18T18:11:11;2.22;;;1.12;;
13222;SDS011;6676;45.192;5.722;2023-02-18T18:16:43;1.47;;;1.20;;
13222;SDS011;6676;45.192;5.722;2023-02-18T18:19:35;3.58;;;1.47;;
13222;SDS011;6676;45.192;5.722;2023-02-18T18:22:27;1.85;;;1.47;;
13222;SDS011;6676;45.192;5.722;2023-02-18T18:25:20;3.80;;;1.55;;
13222;SDS011;6676;45.192;5.722;2023-02-18T18:28:12;2.52;;;1.80;;
13222;SDS011;6676;45.192;5.722;2023-02-18T18:31:04;2.35;;;1.50;;
13222;SDS011;6676;45.192;5.722;2023-02-18T18:33:55;2.15;;;1.55;;
13222;SDS011;6676;45.192;5.722;2023-02-18T18:36:47;3.35;;;1.60;;
13222;SDS011;6676;45.192;5.722;2023-02-18T18:39:38;2.65;;;2.10;;
13222;SDS011;6676;45.192;5.722;2023-02-18T18:45:17;2.60;;;1.90;;
13222;SDS011;6676;45.192;5.722;2023-02-18T18:50:49;1.72;;;1.55;;
13222;SDS011;6676;45.192;5.722;2023-02-18T18:53:42;2.10;;;1.55;;
13222;SDS011;6676;45.192;5.722;2023-02-18T19:02:03;2.77;;;1.60;;
13222;SDS011;6676;45.192;5.722;2023-02-18T19:04:57;2.67;;;1.82;;
13222;SDS011;6676;45.192;5.722;2023-02-18T19:07:50;2.17;;;1.75;;
13222;SDS011;6676;45.192;5.722;2023-02-18T19:10:43;3.17;;;2.20;;
13222;SDS011;6676;45.192;5.722;2023-02-18T19:13:36;3.50;;;2.87;;
13222;SDS011;6676;45.192;5.722;2023-02-18T19:16:29;2.87;;;2.20;;
13222;SDS011;6676;45.192;5.722;2023-02-18T19:22:02;3.33;;;2.60;;
13222;SDS011;6676;45.192;5.722;2023-02-18T19:24:53;3.22;;;2.35;;
13222;SDS011;6676;45.192;5.722;2023-02-18T19:30:24;2.62;;;2.08;;
13222;SDS011;6676;45.192;5.722;2023-02-18T19:33:17;7.00;;;3.42;;
13222;SDS011;6676;45.192;5.722;2023-02-18T19:38:49;4.47;;;3.47;;
13222;SDS011;6676;45.192;5.722;2023-02-18T19:41:40;7.80;;;4.83;;
13222;SDS011;6676;45.192;5.722;2023-02-18T19:44:23;10.20;;;5.83;;
13222;SDS011;6676;45.192;5.722;2023-02-18T19:47:24;9.48;;;4.85;;
13222;SDS011;6676;45.192;5.722;2023-02-18T19:50:16;6.35;;;4.20;;
13222;SDS011;6676;45.192;5.722;2023-02-18T19:53:08;5.40;;;3.85;;
13222;SDS011;6676;45.192;5.722;2023-02-18T19:59:12;11.35;;;5.97;;
13222;SDS011;6676;45.192;5.722;2023-02-18T20:02:03;9.90;;;6.50;;
13222;SDS011;6676;45.192;5.722;2023-02-18T20:04:57;11.33;;;6.53;;
13222;SDS011;6676;45.192;5.722;2023-02-18T20:10:30;8.08;;;4.87;;
13222;SDS011;6676;45.192;5.722;2023-02-18T20:16:05;7.92;;;5.42;;
13222;SDS011;6676;45.192;5.722;2023-02-18T20:18:58;8.68;;;6.30;;
13222;SDS011;6676;45.192;5.722;2023-02-18T20:21:51;9.88;;;5.97;;
13222;SDS011;6676;45.192;5.722;2023-02-18T20:24:46;9.35;;;5.95;;
13222;SDS011;6676;45.192;5.722;2023-02-18T20:28:04;10.55;;;5.85;;
13222;SDS011;6676;45.192;5.722;2023-02-18T20:31:03;12.43;;;5.65;;
13222;SDS011;6676;45.192;5.722;2023-02-18T20:33:59;9.55;;;5.87;;
13222;SDS011;6676;45.192;5.722;2023-02-18T20:36:51;7.37;;;5.28;;
13222;SDS011;6676;45.192;5.722;2023-02-18T20:39:43;9.43;;;6.15;;
13222;SDS011;6676;45.192;5.722;2023-02-18T20:42:37;9.95;;;5.80;;
13222;SDS011;6676;45.192;5.722;2023-02-18T20:45:32;9.30;;;6.15;;
13222;SDS011;6676;45.192;5.722;2023-02-18T20:48:24;9.18;;;7.08;;
13222;SDS011;6676;45.192;5.722;2023-02-18T20:53:58;15.08;;;7.28;;
13222;SDS011;6676;45.192;5.722;2023-02-18T20:56:52;7.78;;;5.95;;
13222;SDS011;6676;45.192;5.722;2023-02-18T20:59:44;7.78;;;6.10;;
13222;SDS011;6676;45.192;5.722;2023-02-18T21:02:36;9.45;;;6.17;;
13222;SDS011;6676;45.192;5.722;2023-02-18T21:05:28;10.93;;;6.90;;
13222;SDS011;6676;45.192;5.722;2023-02-18T21:08:21;10.72;;;7.47;;
13222;SDS011;6676;45.192;5.722;2023-02-18T21:11:14;13.40;;;7.30;;
13222;SDS011;6676;45.192;5.722;2023-02-18T21:14:08;12.75;;;8.60;;
13222;SDS011;6676;45.192;5.722;2023-02-18T21:21:27;13.68;;;9.63;;
13222;SDS011;6676;45.192;5.722;2023-02-18T21:24:18;12.35;;;8.15;;
13222;SDS011;6676;45.192;5.722;2023-02-18T21:29:54;8.75;;;6.83;;
13222;SDS011;6676;45.192;5.722;2023-02-18T21:35:39;10.70;;;7.22;;
13222;SDS011;6676;45.192;5.722;2023-02-18T21:41:11;8.68;;;6.25;;
13222;SDS011;6676;45.192;5.722;2023-02-18T21:44:04;8.05;;;6.05;;
13222;SDS011;6676;45.192;5.722;2023-02-18T21:46:57;9.45;;;6.30;;
13222;SDS011;6676;45.192;5.722;2023-02-18T21:49:50;12.58;;;6.92;;
13222;SDS011;6676;45.192;5.722;2023-02-18T21:52:45;8.83;;;5.97;;
13222;SDS011;6676;45.192;5.722;2023-02-18T22:10:23;11.55;;;7.53;;
13222;SDS011;6676;45.192;5.722;2023-02-18T22:13:15;7.75;;;6.25;;
13222;SDS011;6676;45.192;5.722;2023-02-18T22:16:07;8.63;;;5.28;;
13222;SDS011;6676;45.192;5.722;2023-02-18T22:19:00;6.67;;;4.97;;
13222;SDS011;6676;45.192;5.722;2023-02-18T22:21:52;6.12;;;4.53;;
13222;SDS011;6676;45.192;5.722;2023-02-18T22:24:49;5.95;;;4.55;;
13222;SDS011;6676;45.192;5.722;2023-02-18T22:27:41;6.80;;;4.62;;
13222;SDS011;6676;45.192;5.722;2023-02-18T22:30:51;6.85;;;4.45;;
13222;SDS011;6676;45.192;5.722;2023-02-18T22:33:43;7.35;;;4.30;;
13222;SDS011;6676;45.192;5.722;2023-02-18T22:36:36;6.28;;;4.35;;
13222;SDS011;6676;45.192;5.722;2023-02-18T22:42:20;5.72;;;4.78;;
13222;SDS011;6676;45.192;5.722;2023-02-18T22:45:12;4.67;;;3.85;;
13222;SDS011;6676;45.192;5.722;2023-02-18T22:48:07;6.50;;;4.17;;
13222;SDS011;6676;45.192;5.722;2023-02-18T22:51:17;5.92;;;3.95;;
13222;SDS011;6676;45.192;5.722;2023-02-18T22:54:11;6.65;;;4.15;;
13222;SDS011;6676;45.192;5.722;2023-02-18T22:57:04;6.60;;;4.55;;
13222;SDS011;6676;45.192;5.722;2023-02-18T22:59:56;7.87;;;3.95;;
13222;SDS011;6676;45.192;5.722;2023-02-18T23:02:49;8.35;;;4.30;;